sensor_id;sensor_type;location;lat;lon;timestamp;P1;durP1;ratioP1;P2;durP2;ratioP2
43152;SDS011;28756;49.064;9.290;2023-06-10T00:02:10;2.90;;;2.60;;
43152;SDS011;28756;49.064;9.290;2023-06-10T00:04:36;2.90;;;2.60;;
43152;SDS011;28756;49.064;9.290;2023-06-10T00:07:03;3.20;;;2.47;;
43152;SDS011;28756;49.064;9.290;2023-06-10T00:09:33;3.40;;;2.45;;
43152;SDS011;28756;49.064;9.290;2023-06-10T00:12:06;2.88;;;2.60;;
43152;SDS011;28756;49.064;9.290;2023-06-10T00:14:35;3.38;;;2.95;;
43152;SDS011;28756;49.064;9.290;2023-06-10T00:17:03;2.67;;;2.30;;
43152;SDS011;28756;49.064;9.290;2023-06-10T00:19:30;3.13;;;2.67;;
43152;SDS011;28756;49.064;9.290;2023-06-10T00:21:56;2.90;;;2.60;;
43152;SDS011;28756;49.064;9.290;2023-06-10T00:24:22;4.03;;;2.42;;
43152;SDS011;28756;49.064;9.290;2023-06-10T00:26:48;2.90;;;2.53;;
43152;SDS011;28756;49.064;9.290;2023-06-10T00:29:14;3.08;;;2.60;;
43152;SDS011;28756;49.064;9.290;2023-06-10T00:31:40;2.85;;;2.50;;
43152;SDS011;28756;49.064;9.290;2023-06-10T00:34:06;3.75;;;2.65;;
43152;SDS011;28756;49.064;9.290;2023-06-10T00:36:33;3.65;;;2.80;;
43152;SDS011;28756;49.064;9.290;2023-06-10T00:38:59;4.43;;;3.15;;
43152;SDS011;28756;49.064;9.290;2023-06-10T00:41:25;3.00;;;2.70;;
43152;SDS011;28756;49.064;9.290;2023-06-10T00:43:53;3.40;;;2.90;;
43152;SDS011;28756;49.064;9.290;2023-06-10T00:46:19;2.80;;;2.55;;
43152;SDS011;28756;49.064;9.290;2023-06-10T00:48:47;2.55;;;2.33;;
43152;SDS011;28756;49.064;9.290;2023-06-10T00:51:13;3.05;;;2.70;;
43152;SDS011;28756;49.064;9.290;2023-06-10T00:53:39;2.70;;;2.45;;
43152;SDS011;28756;49.064;9.290;2023-06-10T00:56:06;3.15;;;2.20;;
43152;SDS011;28756;49.064;9.290;2023-06-10T00:58:32;2.67;;;2.47;;
43152;SDS011;28756;49.064;9.290;2023-06-10T01:00:58;2.53;;;2.33;;
43152;SDS011;28756;49.064;9.290;2023-06-10T01:03:25;2.97;;;2.63;;
43152;SDS011;28756;49.064;9.290;2023-06-10T01:05:57;2.63;;;2.42;;
43152;SDS011;28756;49.064;9.290;2023-06-10T01:08:41;2.60;;;2.40;;
43152;SDS011;28756;49.064;9.290;2023-06-10T01:11:21;2.50;;;2.20;;
43152;SDS011;28756;49.064;9.290;2023-06-10T01:13:54;2.63;;;2.42;;
43152;SDS011;28756;49.064;9.290;2023-06-10T01:16:23;2.85;;;2.63;;
43152;SDS011;28756;49.064;9.290;2023-06-10T01:18:50;2.78;;;2.38;;
43152;SDS011;28756;49.064;9.290;2023-06-10T01:21:20;2.53;;;2.25;;
43152;SDS011;28756;49.064;9.290;2023-06-10T01:23:50;1.92;;;1.75;;
43152;SDS011;28756;49.064;9.290;2023-06-10T01:26:18;2.88;;;2.53;;
43152;SDS011;28756;49.064;9.290;2023-06-10T01:28:52;4.18;;;2.50;;
43152;SDS011;28756;49.064;9.290;2023-06-10T01:31:48;3.03;;;2.20;;
43152;SDS011;28756;49.064;9.290;2023-06-10T01:34:23;2.80;;;2.50;;
43152;SDS011;28756;49.064;9.290;2023-06-10T01:36:49;2.78;;;2.08;;
43152;SDS011;28756;49.064;9.290;2023-06-10T01:39:17;2.67;;;2.25;;
43152;SDS011;28756;49.064;9.290;2023-06-10T01:41:48;3.20;;;2.55;;
43152;SDS011;28756;49.064;9.290;2023-06-10T01:44:17;2.60;;;2.20;;
43152;SDS011;28756;49.064;9.290;2023-06-10T01:46:45;2.60;;;2.40;;
43152;SDS011;28756;49.064;9.290;2023-06-10T01:49:11;2.40;;;2.20;;
43152;SDS011;28756;49.064;9.290;2023-06-10T01:51:38;2.63;;;2.13;;
43152;SDS011;28756;49.064;9.290;2023-06-10T01:54:03;2.92;;;2.42;;
43152;SDS011;28756;49.064;9.290;2023-06-10T01:56:30;3.85;;;2.33;;
43152;SDS011;28756;49.064;9.290;2023-06-10T01:58:56;2.70;;;2.50;;
43152;SDS011;28756;49.064;9.290;2023-06-10T02:01:24;2.40;;;2.20;;
43152;SDS011;28756;49.064;9.290;2023-06-10T02:03:50;2.60;;;2.40;;
43152;SDS011;28756;49.064;9.290;2023-06-10T02:06:16;2.35;;;2.13;;
43152;SDS011;28756;49.064;9.290;2023-06-10T02:08:42;3.47;;;2.13;;
43152;SDS011;28756;49.064;9.290;2023-06-10T02:11:08;2.38;;;2.17;;
43152;SDS011;28756;49.064;9.290;2023-06-10T02:13:34;2.90;;;2.60;;
43152;SDS011;28756;49.064;9.290;2023-06-10T02:15:59;3.63;;;2.80;;
43152;SDS011;28756;49.064;9.290;2023-06-10T02:18:26;2.75;;;2.50;;
43152;SDS011;28756;49.064;9.290;2023-06-10T02:20:53;2.72;;;2.45;;
43152;SDS011;28756;49.064;9.290;2023-06-10T02:23:19;2.67;;;2.45;;
43152;SDS011;28756;49.064;9.290;2023-06-10T02:25:45;3.15;;;2.83;;
43152;SDS011;28756;49.064;9.290;2023-06-10T02:28:12;2.58;;;2.38;;
43152;SDS011;28756;49.064;9.290;2023-06-10T02:30:39;2.58;;;2.38;;
43152;SDS011;28756;49.064;9.290;2023-06-10T02:33:07;3.13;;;2.40;;
43152;SDS011;28756;49.064;9.290;2023-06-10T02:35:36;2.63;;;2.20;;
43152;SDS011;28756;49.064;9.290;2023-06-10T02:38:03;2.70;;;2.50;;
43152;SDS011;28756;49.064;9.290;2023-06-10T02:40:29;3.55;;;2.30;;
43152;SDS011;28756;49.064;9.290;2023-06-10T02:42:55;2.50;;;2.30;;
43152;SDS011;28756;49.064;9.290;2023-06-10T02:45:20;4.10;;;2.63;;
43152;SDS011;28756;49.064;9.290;2023-06-10T02:47:46;2.28;;;2.08;;
43152;SDS011;28756;49.064;9.290;2023-06-10T02:50:12;2.40;;;2.20;;
43152;SDS011;28756;49.064;9.290;2023-06-10T02:52:37;2.47;;;2.28;;
43152;SDS011;28756;49.064;9.290;2023-06-10T02:55:03;3.10;;;2.80;;
43152;SDS011;28756;49.064;9.290;2023-06-10T02:57:30;4.60;;;2.83;;
43152;SDS011;28756;49.064;9.290;2023-06-10T02:59:55;4.70;;;2.85;;
43152;SDS011;28756;49.064;9.290;2023-06-10T03:02:23;3.30;;;2.60;;
43152;SDS011;28756;49.064;9.290;2023-06-10T03:04:53;3.03;;;2.72;;
43152;SDS011;28756;49.064;9.290;2023-06-10T03:07:22;3.05;;;2.75;;
43152;SDS011;28756;49.064;9.290;2023-06-10T03:09:49;3.20;;;2.67;;
43152;SDS011;28756;49.064;9.290;2023-06-10T03:12:15;4.72;;;2.78;;
43152;SDS011;28756;49.064;9.290;2023-06-10T03:14:41;2.90;;;2.60;;
43152;SDS011;28756;49.064;9.290;2023-06-10T03:17:07;3.20;;;2.90;;
43152;SDS011;28756;49.064;9.290;2023-06-10T03:19:33;2.60;;;2.40;;
43152;SDS011;28756;49.064;9.290;2023-06-10T03:22:13;3.85;;;2.83;;
43152;SDS011;28756;49.064;9.290;2023-06-10T03:24:40;3.80;;;2.95;;
43152;SDS011;28756;49.064;9.290;2023-06-10T03:27:09;3.03;;;2.67;;
43152;SDS011;28756;49.064;9.290;2023-06-10T03:29:36;3.10;;;2.80;;
43152;SDS011;28756;49.064;9.290;2023-06-10T03:32:02;3.72;;;2.85;;
43152;SDS011;28756;49.064;9.290;2023-06-10T03:34:28;3.45;;;2.60;;
43152;SDS011;28756;49.064;9.290;2023-06-10T03:36:55;4.32;;;3.20;;
43152;SDS011;28756;49.064;9.290;2023-06-10T03:39:21;4.28;;;3.20;;
43152;SDS011;28756;49.064;9.290;2023-06-10T03:41:48;3.65;;;3.20;;
43152;SDS011;28756;49.064;9.290;2023-06-10T03:44:15;3.30;;;3.00;;
43152;SDS011;28756;49.064;9.290;2023-06-10T03:46:40;3.47;;;3.17;;
43152;SDS011;28756;49.064;9.290;2023-06-10T03:49:06;3.35;;;2.90;;
43152;SDS011;28756;49.064;9.290;2023-06-10T03:51:32;3.15;;;2.83;;
43152;SDS011;28756;49.064;9.290;2023-06-10T03:53:58;3.70;;;3.00;;
43152;SDS011;28756;49.064;9.290;2023-06-10T03:56:23;3.50;;;3.20;;
43152;SDS011;28756;49.064;9.290;2023-06-10T03:58:50;3.53;;;3.05;;
43152;SDS011;28756;49.064;9.290;2023-06-10T04:01:16;4.50;;;3.28;;
43152;SDS011;28756;49.064;9.290;2023-06-10T04:03:46;3.38;;;3.08;;
43152;SDS011;28756;49.064;9.290;2023-06-10T04:06:14;3.25;;;2.95;;
43152;SDS011;28756;49.064;9.290;2023-06-10T04:08:41;4.40;;;3.42;;
43152;SDS011;28756;49.064;9.290;2023-06-10T04:11:07;3.58;;;3.28;;
43152;SDS011;28756;49.064;9.290;2023-06-10T04:13:34;3.25;;;2.90;;
43152;SDS011;28756;49.064;9.290;2023-06-10T04:15:59;3.20;;;2.90;;
43152;SDS011;28756;49.064;9.290;2023-06-10T04:18:25;4.25;;;2.97;;
43152;SDS011;28756;49.064;9.290;2023-06-10T04:20:51;3.80;;;3.40;;
43152;SDS011;28756;49.064;9.290;2023-06-10T04:23:17;4.85;;;3.08;;
43152;SDS011;28756;49.064;9.290;2023-06-10T04:25:43;3.35;;;2.70;;
43152;SDS011;28756;49.064;9.290;2023-06-10T04:28:09;4.43;;;3.22;;
43152;SDS011;28756;49.064;9.290;2023-06-10T04:30:34;3.38;;;3.08;;
43152;SDS011;28756;49.064;9.290;2023-06-10T04:33:00;3.40;;;3.10;;
43152;SDS011;28756;49.064;9.290;2023-06-10T04:35:26;3.53;;;3.22;;
43152;SDS011;28756;49.064;9.290;2023-06-10T04:37:52;4.25;;;2.97;;
43152;SDS011;28756;49.064;9.290;2023-06-10T04:40:19;3.83;;;2.83;;
43152;SDS011;28756;49.064;9.290;2023-06-10T04:42:44;4.18;;;3.67;;
43152;SDS011;28756;49.064;9.290;2023-06-10T04:45:10;3.38;;;3.08;;
43152;SDS011;28756;49.064;9.290;2023-06-10T04:47:36;3.20;;;2.90;;
43152;SDS011;28756;49.064;9.290;2023-06-10T04:50:02;3.88;;;3.03;;
43152;SDS011;28756;49.064;9.290;2023-06-10T04:52:29;3.45;;;3.15;;
43152;SDS011;28756;49.064;9.290;2023-06-10T04:54:55;3.60;;;3.30;;
43152;SDS011;28756;49.064;9.290;2023-06-10T04:57:23;4.00;;;3.50;;
43152;SDS011;28756;49.064;9.290;2023-06-10T04:59:48;4.63;;;3.30;;
43152;SDS011;28756;49.064;9.290;2023-06-10T05:02:14;3.35;;;3.05;;
43152;SDS011;28756;49.064;9.290;2023-06-10T05:04:40;3.70;;;3.30;;
43152;SDS011;28756;49.064;9.290;2023-06-10T05:07:06;4.95;;;3.45;;
43152;SDS011;28756;49.064;9.290;2023-06-10T05:09:31;4.32;;;3.70;;
43152;SDS011;28756;49.064;9.290;2023-06-10T05:11:58;3.33;;;2.95;;
43152;SDS011;28756;49.064;9.290;2023-06-10T05:14:24;4.10;;;3.30;;
43152;SDS011;28756;49.064;9.290;2023-06-10T05:16:49;4.22;;;3.60;;
43152;SDS011;28756;49.064;9.290;2023-06-10T05:19:15;4.38;;;3.10;;
43152;SDS011;28756;49.064;9.290;2023-06-10T05:21:41;3.80;;;3.35;;
43152;SDS011;28756;49.064;9.290;2023-06-10T05:24:07;3.50;;;3.20;;
43152;SDS011;28756;49.064;9.290;2023-06-10T05:26:33;6.65;;;3.65;;
43152;SDS011;28756;49.064;9.290;2023-06-10T05:29:02;4.35;;;3.75;;
43152;SDS011;28756;49.064;9.290;2023-06-10T05:31:29;3.80;;;3.50;;
43152;SDS011;28756;49.064;9.290;2023-06-10T05:33:55;3.45;;;3.15;;
43152;SDS011;28756;49.064;9.290;2023-06-10T05:36:20;3.78;;;3.40;;
43152;SDS011;28756;49.064;9.290;2023-06-10T05:38:46;3.47;;;3.00;;
43152;SDS011;28756;49.064;9.290;2023-06-10T05:41:12;3.70;;;3.28;;
43152;SDS011;28756;49.064;9.290;2023-06-10T05:43:38;3.90;;;3.25;;
43152;SDS011;28756;49.064;9.290;2023-06-10T05:46:04;3.63;;;3.20;;
43152;SDS011;28756;49.064;9.290;2023-06-10T05:48:29;4.25;;;3.60;;
43152;SDS011;28756;49.064;9.290;2023-06-10T05:50:55;3.53;;;2.95;;
43152;SDS011;28756;49.064;9.290;2023-06-10T05:53:21;3.25;;;2.95;;
43152;SDS011;28756;49.064;9.290;2023-06-10T05:55:47;3.75;;;3.08;;
43152;SDS011;28756;49.064;9.290;2023-06-10T05:58:13;3.40;;;2.95;;
43152;SDS011;28756;49.064;9.290;2023-06-10T06:00:39;5.93;;;3.15;;
43152;SDS011;28756;49.064;9.290;2023-06-10T06:03:08;3.58;;;3.25;;
43152;SDS011;28756;49.064;9.290;2023-06-10T06:05:35;4.57;;;3.08;;
43152;SDS011;28756;49.064;9.290;2023-06-10T06:08:03;3.17;;;2.88;;
43152;SDS011;28756;49.064;9.290;2023-06-10T06:10:29;3.75;;;3.35;;
43152;SDS011;28756;49.064;9.290;2023-06-10T06:12:55;3.22;;;2.83;;
43152;SDS011;28756;49.064;9.290;2023-06-10T06:15:21;3.35;;;3.05;;
43152;SDS011;28756;49.064;9.290;2023-06-10T06:17:47;3.30;;;3.00;;
43152;SDS011;28756;49.064;9.290;2023-06-10T06:20:13;3.97;;;3.00;;
43152;SDS011;28756;49.064;9.290;2023-06-10T06:22:39;4.38;;;3.17;;
43152;SDS011;28756;49.064;9.290;2023-06-10T06:25:05;3.50;;;3.20;;
43152;SDS011;28756;49.064;9.290;2023-06-10T06:27:31;3.20;;;2.90;;
43152;SDS011;28756;49.064;9.290;2023-06-10T06:29:57;3.38;;;3.05;;
43152;SDS011;28756;49.064;9.290;2023-06-10T06:32:23;3.22;;;2.92;;
43152;SDS011;28756;49.064;9.290;2023-06-10T06:34:52;3.17;;;2.97;;
43152;SDS011;28756;49.064;9.290;2023-06-10T06:37:21;3.67;;;3.38;;
43152;SDS011;28756;49.064;9.290;2023-06-10T06:39:49;3.15;;;2.75;;
43152;SDS011;28756;49.064;9.290;2023-06-10T06:42:16;4.43;;;3.20;;
43152;SDS011;28756;49.064;9.290;2023-06-10T06:44:42;3.20;;;2.90;;
43152;SDS011;28756;49.064;9.290;2023-06-10T06:47:08;3.13;;;2.80;;
43152;SDS011;28756;49.064;9.290;2023-06-10T06:49:34;3.15;;;2.85;;
43152;SDS011;28756;49.064;9.290;2023-06-10T06:52:00;3.35;;;3.05;;
43152;SDS011;28756;49.064;9.290;2023-06-10T06:54:26;3.10;;;2.80;;
43152;SDS011;28756;49.064;9.290;2023-06-10T06:56:52;3.20;;;2.90;;
43152;SDS011;28756;49.064;9.290;2023-06-10T06:59:18;3.35;;;3.08;;
43152;SDS011;28756;49.064;9.290;2023-06-10T07:01:44;3.58;;;3.28;;
43152;SDS011;28756;49.064;9.290;2023-06-10T07:04:11;8.18;;;3.65;;
43152;SDS011;28756;49.064;9.290;2023-06-10T07:06:37;3.28;;;2.95;;
43152;SDS011;28756;49.064;9.290;2023-06-10T07:09:03;3.33;;;3.00;;
43152;SDS011;28756;49.064;9.290;2023-06-10T07:11:30;3.15;;;2.85;;
43152;SDS011;28756;49.064;9.290;2023-06-10T07:13:56;2.90;;;2.70;;
43152;SDS011;28756;49.064;9.290;2023-06-10T07:16:21;3.08;;;2.78;;
43152;SDS011;28756;49.064;9.290;2023-06-10T07:18:47;3.20;;;2.90;;
43152;SDS011;28756;49.064;9.290;2023-06-10T07:21:13;3.35;;;2.70;;
43152;SDS011;28756;49.064;9.290;2023-06-10T07:23:42;2.85;;;2.60;;
43152;SDS011;28756;49.064;9.290;2023-06-10T07:26:08;2.70;;;2.40;;
43152;SDS011;28756;49.064;9.290;2023-06-10T07:28:36;3.60;;;2.78;;
43152;SDS011;28756;49.064;9.290;2023-06-10T07:31:02;3.72;;;2.90;;
43152;SDS011;28756;49.064;9.290;2023-06-10T07:33:28;3.45;;;2.72;;
43152;SDS011;28756;49.064;9.290;2023-06-10T07:35:54;3.20;;;2.90;;
43152;SDS011;28756;49.064;9.290;2023-06-10T07:38:20;4.15;;;3.00;;
43152;SDS011;28756;49.064;9.290;2023-06-10T07:40:46;3.33;;;3.03;;
43152;SDS011;28756;49.064;9.290;2023-06-10T07:43:12;3.65;;;3.05;;
43152;SDS011;28756;49.064;9.290;2023-06-10T07:45:41;3.45;;;3.15;;
43152;SDS011;28756;49.064;9.290;2023-06-10T07:48:07;3.28;;;2.97;;
43152;SDS011;28756;49.064;9.290;2023-06-10T07:50:33;3.30;;;3.00;;
43152;SDS011;28756;49.064;9.290;2023-06-10T07:52:59;3.20;;;2.83;;
43152;SDS011;28756;49.064;9.290;2023-06-10T07:55:25;3.55;;;3.03;;
43152;SDS011;28756;49.064;9.290;2023-06-10T07:57:51;3.67;;;3.28;;
43152;SDS011;28756;49.064;9.290;2023-06-10T08:00:17;3.40;;;3.10;;
43152;SDS011;28756;49.064;9.290;2023-06-10T08:02:43;3.35;;;2.88;;
43152;SDS011;28756;49.064;9.290;2023-06-10T08:05:09;3.83;;;2.97;;
43152;SDS011;28756;49.064;9.290;2023-06-10T08:07:35;3.95;;;3.25;;
43152;SDS011;28756;49.064;9.290;2023-06-10T08:10:01;4.13;;;3.40;;
43152;SDS011;28756;49.064;9.290;2023-06-10T08:12:27;5.05;;;3.40;;
43152;SDS011;28756;49.064;9.290;2023-06-10T08:14:53;4.20;;;3.35;;
43152;SDS011;28756;49.064;9.290;2023-06-10T08:17:20;3.03;;;2.83;;
43152;SDS011;28756;49.064;9.290;2023-06-10T08:19:45;3.22;;;2.92;;
43152;SDS011;28756;49.064;9.290;2023-06-10T08:22:11;4.40;;;3.20;;
43152;SDS011;28756;49.064;9.290;2023-06-10T08:24:37;2.92;;;2.67;;
43152;SDS011;28756;49.064;9.290;2023-06-10T08:27:03;3.45;;;3.15;;
43152;SDS011;28756;49.064;9.290;2023-06-10T08:29:30;2.83;;;2.63;;
43152;SDS011;28756;49.064;9.290;2023-06-10T08:31:57;3.47;;;3.17;;
43152;SDS011;28756;49.064;9.290;2023-06-10T08:34:23;3.05;;;2.80;;
43152;SDS011;28756;49.064;9.290;2023-06-10T08:36:49;3.25;;;2.95;;
43152;SDS011;28756;49.064;9.290;2023-06-10T08:39:20;3.28;;;2.97;;
43152;SDS011;28756;49.064;9.290;2023-06-10T08:41:51;3.17;;;2.88;;
43152;SDS011;28756;49.064;9.290;2023-06-10T08:44:29;3.60;;;3.30;;
43152;SDS011;28756;49.064;9.290;2023-06-10T08:46:59;3.65;;;3.35;;
43152;SDS011;28756;49.064;9.290;2023-06-10T08:49:26;3.08;;;2.88;;
43152;SDS011;28756;49.064;9.290;2023-06-10T08:51:58;3.30;;;3.00;;
43152;SDS011;28756;49.064;9.290;2023-06-10T08:54:27;4.07;;;3.40;;
43152;SDS011;28756;49.064;9.290;2023-06-10T08:56:59;4.72;;;3.17;;
43152;SDS011;28756;49.064;9.290;2023-06-10T08:59:27;3.60;;;3.30;;
43152;SDS011;28756;49.064;9.290;2023-06-10T09:01:54;4.65;;;3.20;;
43152;SDS011;28756;49.064;9.290;2023-06-10T09:04:20;3.33;;;3.03;;
43152;SDS011;28756;49.064;9.290;2023-06-10T09:06:46;4.47;;;3.05;;
43152;SDS011;28756;49.064;9.290;2023-06-10T09:09:14;3.20;;;2.90;;
43152;SDS011;28756;49.064;9.290;2023-06-10T09:11:42;3.85;;;2.97;;
43152;SDS011;28756;49.064;9.290;2023-06-10T09:14:08;3.20;;;2.90;;
43152;SDS011;28756;49.064;9.290;2023-06-10T09:16:34;5.63;;;3.10;;
43152;SDS011;28756;49.064;9.290;2023-06-10T09:19:00;3.25;;;2.78;;
43152;SDS011;28756;49.064;9.290;2023-06-10T09:21:32;3.00;;;2.80;;
43152;SDS011;28756;49.064;9.290;2023-06-10T09:23:59;3.30;;;3.00;;
43152;SDS011;28756;49.064;9.290;2023-06-10T09:26:28;3.17;;;2.88;;
43152;SDS011;28756;49.064;9.290;2023-06-10T09:28:57;3.28;;;2.97;;
43152;SDS011;28756;49.064;9.290;2023-06-10T09:31:30;3.15;;;2.70;;
43152;SDS011;28756;49.064;9.290;2023-06-10T09:34:10;3.30;;;3.00;;
43152;SDS011;28756;49.064;9.290;2023-06-10T09:36:38;3.15;;;2.85;;
43152;SDS011;28756;49.064;9.290;2023-06-10T09:39:13;3.10;;;2.70;;
43152;SDS011;28756;49.064;9.290;2023-06-10T09:41:43;3.13;;;2.90;;
43152;SDS011;28756;49.064;9.290;2023-06-10T09:44:11;3.60;;;2.90;;
43152;SDS011;28756;49.064;9.290;2023-06-10T09:46:38;3.08;;;2.83;;
43152;SDS011;28756;49.064;9.290;2023-06-10T09:49:04;11.57;;;4.03;;
43152;SDS011;28756;49.064;9.290;2023-06-10T09:51:29;3.78;;;2.80;;
43152;SDS011;28756;49.064;9.290;2023-06-10T09:53:55;3.53;;;3.22;;
43152;SDS011;28756;49.064;9.290;2023-06-10T09:56:21;2.92;;;2.72;;
43152;SDS011;28756;49.064;9.290;2023-06-10T09:58:57;3.25;;;2.58;;
43152;SDS011;28756;49.064;9.290;2023-06-10T10:01:22;4.13;;;3.08;;
43152;SDS011;28756;49.064;9.290;2023-06-10T10:03:49;3.05;;;2.75;;
43152;SDS011;28756;49.064;9.290;2023-06-10T10:06:16;3.50;;;2.95;;
43152;SDS011;28756;49.064;9.290;2023-06-10T10:08:47;3.13;;;2.78;;
43152;SDS011;28756;49.064;9.290;2023-06-10T10:11:16;2.80;;;2.60;;
43152;SDS011;28756;49.064;9.290;2023-06-10T10:13:45;3.35;;;2.60;;
43152;SDS011;28756;49.064;9.290;2023-06-10T10:16:14;3.42;;;2.97;;
43152;SDS011;28756;49.064;9.290;2023-06-10T10:19:04;2.95;;;2.67;;
43152;SDS011;28756;49.064;9.290;2023-06-10T10:21:37;4.95;;;2.80;;
43152;SDS011;28756;49.064;9.290;2023-06-10T10:24:18;2.70;;;2.50;;
43152;SDS011;28756;49.064;9.290;2023-06-10T10:26:55;3.03;;;2.72;;
43152;SDS011;28756;49.064;9.290;2023-06-10T10:29:30;3.15;;;2.80;;
43152;SDS011;28756;49.064;9.290;2023-06-10T10:32:03;3.97;;;2.90;;
43152;SDS011;28756;49.064;9.290;2023-06-10T10:37:13;3.33;;;2.90;;
43152;SDS011;28756;49.064;9.290;2023-06-10T10:39:39;3.10;;;2.90;;
43152;SDS011;28756;49.064;9.290;2023-06-10T10:42:05;2.92;;;2.67;;
43152;SDS011;28756;49.064;9.290;2023-06-10T10:44:36;2.80;;;2.60;;
43152;SDS011;28756;49.064;9.290;2023-06-10T10:47:03;2.80;;;2.60;;
43152;SDS011;28756;49.064;9.290;2023-06-10T10:49:33;2.97;;;2.78;;
43152;SDS011;28756;49.064;9.290;2023-06-10T10:52:00;4.05;;;3.03;;
43152;SDS011;28756;49.064;9.290;2023-06-10T10:54:31;3.70;;;2.90;;
43152;SDS011;28756;49.064;9.290;2023-06-10T10:57:09;2.88;;;2.42;;
43152;SDS011;28756;49.064;9.290;2023-06-10T11:00:09;2.90;;;2.70;;
43152;SDS011;28756;49.064;9.290;2023-06-10T11:02:36;3.08;;;2.55;;
43152;SDS011;28756;49.064;9.290;2023-06-10T11:05:08;3.75;;;2.67;;
43152;SDS011;28756;49.064;9.290;2023-06-10T11:07:40;3.33;;;3.03;;
43152;SDS011;28756;49.064;9.290;2023-06-10T11:10:09;4.00;;;2.83;;
43152;SDS011;28756;49.064;9.290;2023-06-10T11:12:53;2.78;;;2.58;;
43152;SDS011;28756;49.064;9.290;2023-06-10T11:15:21;3.88;;;2.80;;
43152;SDS011;28756;49.064;9.290;2023-06-10T11:20:54;2.83;;;2.63;;
43152;SDS011;28756;49.064;9.290;2023-06-10T11:26:12;3.20;;;2.90;;
43152;SDS011;28756;49.064;9.290;2023-06-10T11:31:26;3.00;;;2.70;;
43152;SDS011;28756;49.064;9.290;2023-06-10T11:34:23;2.85;;;2.50;;
43152;SDS011;28756;49.064;9.290;2023-06-10T11:36:50;2.95;;;2.65;;
43152;SDS011;28756;49.064;9.290;2023-06-10T11:39:17;3.20;;;2.50;;
43152;SDS011;28756;49.064;9.290;2023-06-10T11:41:45;3.80;;;2.53;;
43152;SDS011;28756;49.064;9.290;2023-06-10T11:44:12;2.90;;;2.58;;
43152;SDS011;28756;49.064;9.290;2023-06-10T11:46:39;2.60;;;2.40;;
43152;SDS011;28756;49.064;9.290;2023-06-10T11:49:07;3.00;;;2.70;;
43152;SDS011;28756;49.064;9.290;2023-06-10T11:51:40;2.83;;;2.63;;
43152;SDS011;28756;49.064;9.290;2023-06-10T11:54:13;2.92;;;2.70;;
43152;SDS011;28756;49.064;9.290;2023-06-10T11:56:40;2.78;;;2.33;;
43152;SDS011;28756;49.064;9.290;2023-06-10T11:59:06;3.38;;;2.42;;
43152;SDS011;28756;49.064;9.290;2023-06-10T12:01:33;2.75;;;2.55;;
43152;SDS011;28756;49.064;9.290;2023-06-10T12:04:05;2.65;;;2.45;;
43152;SDS011;28756;49.064;9.290;2023-06-10T12:11:45;2.67;;;2.47;;
43152;SDS011;28756;49.064;9.290;2023-06-10T12:14:13;2.65;;;2.30;;
43152;SDS011;28756;49.064;9.290;2023-06-10T12:16:39;2.75;;;2.55;;
43152;SDS011;28756;49.064;9.290;2023-06-10T12:19:05;4.00;;;2.35;;
43152;SDS011;28756;49.064;9.290;2023-06-10T12:21:32;2.58;;;2.38;;
43152;SDS011;28756;49.064;9.290;2023-06-10T12:24:06;2.95;;;2.75;;
43152;SDS011;28756;49.064;9.290;2023-06-10T12:26:36;2.63;;;2.42;;
43152;SDS011;28756;49.064;9.290;2023-06-10T12:32:02;3.40;;;2.28;;
43152;SDS011;28756;49.064;9.290;2023-06-10T12:34:35;2.42;;;2.22;;
43152;SDS011;28756;49.064;9.290;2023-06-10T12:37:03;2.92;;;2.33;;
43152;SDS011;28756;49.064;9.290;2023-06-10T12:39:38;2.45;;;2.25;;
43152;SDS011;28756;49.064;9.290;2023-06-10T12:42:05;2.20;;;2.00;;
43152;SDS011;28756;49.064;9.290;2023-06-10T12:44:35;2.28;;;1.90;;
43152;SDS011;28756;49.064;9.290;2023-06-10T12:47:08;2.35;;;2.15;;
43152;SDS011;28756;49.064;9.290;2023-06-10T12:49:37;2.20;;;2.00;;
43152;SDS011;28756;49.064;9.290;2023-06-10T12:52:03;2.40;;;2.20;;
43152;SDS011;28756;49.064;9.290;2023-06-10T12:54:30;2.67;;;2.47;;
43152;SDS011;28756;49.064;9.290;2023-06-10T12:56:56;2.60;;;2.40;;
43152;SDS011;28756;49.064;9.290;2023-06-10T12:59:22;2.80;;;2.60;;
43152;SDS011;28756;49.064;9.290;2023-06-10T13:01:52;2.65;;;2.45;;
43152;SDS011;28756;49.064;9.290;2023-06-10T13:04:21;2.63;;;2.42;;
43152;SDS011;28756;49.064;9.290;2023-06-10T13:06:47;2.72;;;2.42;;
43152;SDS011;28756;49.064;9.290;2023-06-10T13:09:14;2.97;;;2.30;;
43152;SDS011;28756;49.064;9.290;2023-06-10T13:11:40;2.58;;;2.38;;
43152;SDS011;28756;49.064;9.290;2023-06-10T13:14:07;3.65;;;2.53;;
43152;SDS011;28756;49.064;9.290;2023-06-10T13:16:33;2.85;;;2.60;;
43152;SDS011;28756;49.064;9.290;2023-06-10T13:18:59;3.63;;;2.88;;
43152;SDS011;28756;49.064;9.290;2023-06-10T13:21:27;3.65;;;2.45;;
43152;SDS011;28756;49.064;9.290;2023-06-10T13:23:53;2.60;;;2.40;;
43152;SDS011;28756;49.064;9.290;2023-06-10T13:26:19;2.78;;;2.50;;
43152;SDS011;28756;49.064;9.290;2023-06-10T13:28:45;4.05;;;2.67;;
43152;SDS011;28756;49.064;9.290;2023-06-10T13:31:10;2.40;;;2.20;;
43152;SDS011;28756;49.064;9.290;2023-06-10T13:33:36;4.50;;;2.85;;
43152;SDS011;28756;49.064;9.290;2023-06-10T13:36:03;2.47;;;2.28;;
43152;SDS011;28756;49.064;9.290;2023-06-10T13:38:29;2.50;;;2.30;;
43152;SDS011;28756;49.064;9.290;2023-06-10T13:40:55;2.67;;;2.47;;
43152;SDS011;28756;49.064;9.290;2023-06-10T13:43:21;5.88;;;2.90;;
43152;SDS011;28756;49.064;9.290;2023-06-10T13:45:46;3.95;;;2.70;;
43152;SDS011;28756;49.064;9.290;2023-06-10T13:48:12;4.05;;;2.80;;
43152;SDS011;28756;49.064;9.290;2023-06-10T13:50:38;2.83;;;2.50;;
43152;SDS011;28756;49.064;9.290;2023-06-10T13:53:03;2.67;;;2.10;;
43152;SDS011;28756;49.064;9.290;2023-06-10T13:55:29;2.70;;;2.50;;
43152;SDS011;28756;49.064;9.290;2023-06-10T13:57:55;2.58;;;2.38;;
43152;SDS011;28756;49.064;9.290;2023-06-10T14:00:20;2.42;;;2.22;;
43152;SDS011;28756;49.064;9.290;2023-06-10T14:02:46;2.60;;;2.40;;
43152;SDS011;28756;49.064;9.290;2023-06-10T14:05:12;2.50;;;2.30;;
43152;SDS011;28756;49.064;9.290;2023-06-10T14:07:38;2.63;;;2.42;;
43152;SDS011;28756;49.064;9.290;2023-06-10T14:10:05;3.25;;;2.80;;
43152;SDS011;28756;49.064;9.290;2023-06-10T14:12:33;2.75;;;2.35;;
43152;SDS011;28756;49.064;9.290;2023-06-10T14:14:59;2.70;;;2.33;;
43152;SDS011;28756;49.064;9.290;2023-06-10T14:17:25;2.55;;;2.35;;
43152;SDS011;28756;49.064;9.290;2023-06-10T14:19:51;2.20;;;2.00;;
43152;SDS011;28756;49.064;9.290;2023-06-10T14:22:17;2.35;;;2.15;;
43152;SDS011;28756;49.064;9.290;2023-06-10T14:24:43;3.00;;;1.95;;
43152;SDS011;28756;49.064;9.290;2023-06-10T14:27:08;2.72;;;2.20;;
43152;SDS011;28756;49.064;9.290;2023-06-10T14:29:34;3.20;;;2.38;;
43152;SDS011;28756;49.064;9.290;2023-06-10T14:32:00;2.30;;;2.10;;
43152;SDS011;28756;49.064;9.290;2023-06-10T14:34:26;2.47;;;2.20;;
43152;SDS011;28756;49.064;9.290;2023-06-10T14:36:54;2.30;;;2.10;;
43152;SDS011;28756;49.064;9.290;2023-06-10T14:39:20;2.00;;;1.90;;
43152;SDS011;28756;49.064;9.290;2023-06-10T14:41:46;2.45;;;2.20;;
43152;SDS011;28756;49.064;9.290;2023-06-10T14:44:12;2.45;;;2.25;;
43152;SDS011;28756;49.064;9.290;2023-06-10T14:46:38;2.63;;;2.42;;
43152;SDS011;28756;49.064;9.290;2023-06-10T14:49:03;2.35;;;2.15;;
43152;SDS011;28756;49.064;9.290;2023-06-10T14:51:29;2.45;;;2.20;;
43152;SDS011;28756;49.064;9.290;2023-06-10T14:53:55;3.65;;;2.22;;
43152;SDS011;28756;49.064;9.290;2023-06-10T14:56:21;2.92;;;2.40;;
43152;SDS011;28756;49.064;9.290;2023-06-10T14:58:47;2.30;;;2.10;;
43152;SDS011;28756;49.064;9.290;2023-06-10T15:01:12;2.15;;;2.03;;
43152;SDS011;28756;49.064;9.290;2023-06-10T15:03:38;2.47;;;2.25;;
43152;SDS011;28756;49.064;9.290;2023-06-10T15:06:04;2.67;;;2.40;;
43152;SDS011;28756;49.064;9.290;2023-06-10T15:08:29;2.38;;;2.17;;
43152;SDS011;28756;49.064;9.290;2023-06-10T15:10:56;2.55;;;1.85;;